createdAt,value
2023-03-29T00:01:03.728Z,31.54
2023-03-29T00:05:03.696Z,31.53
2023-03-29T00:09:03.816Z,31.56
2023-03-29T00:13:03.941Z,31.56
2023-03-29T00:17:04.135Z,31.54
2023-03-29T00:21:04.550Z,31.58
2023-03-29T00:25:04.420Z,31.57
2023-03-29T00:29:04.589Z,31.60
2023-03-29T00:33:04.796Z,31.59
2023-03-29T00:37:04.931Z,31.60
2023-03-29T00:41:05.167Z,31.59
2023-03-29T00:45:05.213Z,31.61
2023-03-29T00:49:05.349Z,31.62
2023-03-29T00:53:05.557Z,31.63
2023-03-29T00:57:05.725Z,31.64
2023-03-29T01:01:05.842Z,31.66
2023-03-29T01:05:06.034Z,31.65
2023-03-29T01:09:06.182Z,31.65
2023-03-29T01:13:06.320Z,31.65
2023-03-29T01:17:06.498Z,31.68
2023-03-29T01:21:06.743Z,31.65
2023-03-29T01:25:06.814Z,31.66
2023-03-29T01:29:07.000Z,31.68
2023-03-29T01:33:07.257Z,31.68
2023-03-29T01:37:07.341Z,31.69
2023-03-29T01:41:07.519Z,31.72
2023-03-29T01:45:07.693Z,31.71
2023-03-29T01:49:07.861Z,31.69
2023-03-29T01:53:08.066Z,31.71
2023-03-29T01:57:09.056Z,31.69
2023-03-29T02:01:08.465Z,31.72
2023-03-29T02:05:08.557Z,31.73
2023-03-29T02:09:08.711Z,31.72
2023-03-29T02:13:08.896Z,31.74
2023-03-29T02:17:09.102Z,31.72
2023-03-29T02:21:09.223Z,31.72
2023-03-29T02:25:09.446Z,31.75
2023-03-29T02:29:09.584Z,31.74
2023-03-29T02:33:09.823Z,31.75
2023-03-29T02:37:09.990Z,31.76
2023-03-29T02:41:10.174Z,31.77
2023-03-29T02:45:10.396Z,31.75
2023-03-29T02:49:10.567Z,31.77
2023-03-29T02:53:10.792Z,31.78
2023-03-29T02:57:11.065Z,31.81
2023-03-29T03:01:11.188Z,31.80
2023-03-29T03:05:11.384Z,31.81
2023-03-29T03:09:11.609Z,31.80
2023-03-29T03:13:11.812Z,31.80
2023-03-29T03:17:12.016Z,31.84
2023-03-29T03:21:12.205Z,31.83
2023-03-29T03:25:12.392Z,31.83
2023-03-29T03:29:12.618Z,31.84
2023-03-29T03:33:12.807Z,31.83
2023-03-29T03:37:13.015Z,31.86
2023-03-29T03:41:13.208Z,31.86
2023-03-29T03:45:13.447Z,31.84
2023-03-29T03:49:13.623Z,31.87
2023-03-29T03:53:13.809Z,31.86
2023-03-29T03:57:14.112Z,31.85
2023-03-29T04:01:14.294Z,31.86
2023-03-29T04:05:14.448Z,31.88
2023-03-29T04:09:14.678Z,31.90
2023-03-29T04:13:14.900Z,31.89
2023-03-29T04:17:15.136Z,31.88
2023-03-29T04:21:15.076Z,31.91
2023-03-29T04:25:15.051Z,31.89
2023-03-29T04:29:15.070Z,31.91
2023-03-29T04:33:14.969Z,31.91
2023-03-29T04:37:14.918Z,31.93
2023-03-29T04:41:14.920Z,31.94
2023-03-29T04:45:14.904Z,31.95
2023-03-29T04:49:14.794Z,31.96
2023-03-29T04:53:14.754Z,31.98
2023-03-29T04:57:14.826Z,32.01
2023-03-29T05:01:14.736Z,32.05
2023-03-29T05:05:14.687Z,32.11
2023-03-29T05:09:14.765Z,32.12
2023-03-29T05:13:14.608Z,32.18
2023-03-29T05:17:14.586Z,32.21
2023-03-29T05:21:15.112Z,32.24
2023-03-29T05:25:14.533Z,32.34
2023-03-29T05:29:14.449Z,32.36
2023-03-29T05:33:14.439Z,32.39
2023-03-29T05:37:14.441Z,32.56
2023-03-29T05:41:14.712Z,32.49
2023-03-29T05:45:14.765Z,33.28
2023-03-29T05:49:14.996Z,33.49
2023-03-29T05:53:15.625Z,33.59
2023-03-29T05:57:15.412Z,33.87
2023-03-29T06:01:15.656Z,33.95
2023-03-29T06:05:15.779Z,33.88
2023-03-29T06:09:16.148Z,34.69
2023-03-29T06:13:16.209Z,34.64
2023-03-29T06:17:16.431Z,34.86
2023-03-29T06:21:16.581Z,34.61
2023-03-29T06:25:16.797Z,34.61
2023-03-29T06:29:17.003Z,34.65
2023-03-29T06:33:17.221Z,34.77
2023-03-29T06:37:17.378Z,34.74
2023-03-29T06:41:17.583Z,34.81
2023-03-29T06:45:17.778Z,34.87
2023-03-29T06:49:18.161Z,34.97
2023-03-29T06:53:18.171Z,35.20
2023-03-29T06:57:18.433Z,35.07
2023-03-29T07:01:18.510Z,35.37
2023-03-29T07:05:18.885Z,35.36
2023-03-29T07:09:19.487Z,35.51
2023-03-29T07:13:19.669Z,35.65
2023-03-29T07:17:19.119Z,35.63
2023-03-29T07:21:19.208Z,35.66
2023-03-29T07:25:19.328Z,35.64
2023-03-29T07:29:19.719Z,35.75
2023-03-29T07:33:19.753Z,35.84
2023-03-29T07:37:19.709Z,35.86
2023-03-29T07:41:20.202Z,36.62
2023-03-29T07:45:20.206Z,38.14
2023-03-29T07:49:22.276Z,38.93
2023-03-29T07:53:19.871Z,39.68
2023-03-29T07:57:19.877Z,39.79
2023-03-29T08:01:20.255Z,40.21
2023-03-29T08:05:26.256Z,40.46
2023-03-29T08:09:20.998Z,40.82
2023-03-29T08:13:19.936Z,41.15
2023-03-29T08:17:19.903Z,41.38
2023-03-29T08:21:19.867Z,41.65
2023-03-29T08:25:19.830Z,41.79
2023-03-29T08:29:19.764Z,42.08
2023-03-29T08:33:19.801Z,42.37
2023-03-29T08:37:19.745Z,42.44
2023-03-29T08:41:19.736Z,42.60
2023-03-29T08:45:19.640Z,43.04
2023-03-29T08:49:19.716Z,43.68
2023-03-29T08:53:19.731Z,43.73
2023-03-29T08:57:19.627Z,44.28
2023-03-29T09:01:19.550Z,44.45
2023-03-29T09:05:19.573Z,44.86
2023-03-29T09:09:19.722Z,44.69
2023-03-29T09:13:20.319Z,44.58
2023-03-29T09:17:19.813Z,44.42
2023-03-29T09:21:19.850Z,44.67
2023-03-29T09:25:19.912Z,44.91
2023-03-29T09:29:20.217Z,45.23
2023-03-29T09:33:19.895Z,44.88
2023-03-29T09:37:19.937Z,42.31
2023-03-29T09:41:20.258Z,41.25
2023-03-29T09:45:20.242Z,40.51
2023-03-29T09:49:20.269Z,41.48
2023-03-29T09:53:20.246Z,39.03
2023-03-29T09:57:20.317Z,37.91
2023-03-29T10:01:20.392Z,38.73
2023-03-29T10:05:20.327Z,38.34
2023-03-29T10:09:20.387Z,38.29
2023-03-29T10:13:20.440Z,38.35
2023-03-29T10:17:20.582Z,37.40
2023-03-29T10:21:20.749Z,36.92
2023-03-29T10:25:20.911Z,37.26
2023-03-29T10:29:21.283Z,37.60
2023-03-29T10:33:21.319Z,37.09
2023-03-29T10:37:21.760Z,37.02
2023-03-29T10:41:21.291Z,35.94
2023-03-29T10:45:21.288Z,36.75
2023-03-29T10:49:21.154Z,36.91
2023-03-29T10:53:21.147Z,36.49
2023-03-29T10:57:22.860Z,37.33
2023-03-29T11:01:21.165Z,37.98
2023-03-29T11:05:20.996Z,37.72
2023-03-29T11:09:21.002Z,38.44
2023-03-29T11:13:20.954Z,38.28
2023-03-29T11:17:21.373Z,37.10
2023-03-29T11:21:20.906Z,37.87
2023-03-29T11:25:20.838Z,37.87
2023-03-29T11:29:20.837Z,37.56
2023-03-29T11:33:20.820Z,37.67
2023-03-29T11:37:20.749Z,37.68
2023-03-29T11:41:20.705Z,36.94
2023-03-29T11:45:20.641Z,35.72
2023-03-29T11:49:20.616Z,35.20
2023-03-29T11:53:20.823Z,34.62
2023-03-29T11:57:20.671Z,34.39
2023-03-29T12:01:20.641Z,33.55
2023-03-29T12:05:20.676Z,33.19
2023-03-29T12:09:20.750Z,32.82
2023-03-29T12:13:20.847Z,32.52
2023-03-29T12:17:20.917Z,32.20
2023-03-29T12:21:21.069Z,31.93
2023-03-29T12:25:22.790Z,31.72
2023-03-29T12:29:21.311Z,31.71
2023-03-29T12:33:21.837Z,31.64
2023-03-29T12:37:21.608Z,31.48
2023-03-29T12:41:21.793Z,31.34
2023-03-29T12:45:21.905Z,31.15
2023-03-29T12:49:22.043Z,31.44
2023-03-29T12:53:22.177Z,31.95
2023-03-29T12:57:22.393Z,32.29
2023-03-29T13:01:22.583Z,32.41
2023-03-29T13:05:22.576Z,32.48
2023-03-29T13:09:22.726Z,32.89
2023-03-29T13:13:22.841Z,32.97
2023-03-29T13:17:23.023Z,32.76
2023-03-29T13:21:23.120Z,31.80
2023-03-29T13:25:23.303Z,31.88
2023-03-29T13:29:23.489Z,32.79
2023-03-29T13:33:23.600Z,34.07
2023-03-29T13:37:23.735Z,41.78
2023-03-29T13:41:23.897Z,44.08
2023-03-29T13:45:23.997Z,42.58
2023-03-29T13:49:24.176Z,41.98
2023-03-29T13:53:24.324Z,40.98
2023-03-29T13:57:24.547Z,40.17
2023-03-29T14:01:24.689Z,39.92
2023-03-29T14:05:24.769Z,39.85
2023-03-29T14:09:24.920Z,39.74
2023-03-29T14:13:25.062Z,39.69
2023-03-29T14:17:25.252Z,39.61
2023-03-29T14:21:25.360Z,39.66
2023-03-29T14:25:25.482Z,39.82
2023-03-29T14:29:25.701Z,39.89
2023-03-29T14:33:25.807Z,40.07
2023-03-29T14:37:25.930Z,40.18
2023-03-29T14:41:26.039Z,40.32
2023-03-29T14:45:26.176Z,40.45
2023-03-29T14:49:26.300Z,40.52
2023-03-29T14:53:26.407Z,40.60
2023-03-29T14:57:26.721Z,40.64
2023-03-29T15:01:26.719Z,40.68
2023-03-29T15:05:26.802Z,40.70
2023-03-29T15:09:26.939Z,40.67
2023-03-29T15:13:27.045Z,40.63
2023-03-29T15:17:33.481Z,40.60
2023-03-29T15:21:28.106Z,40.59
2023-03-29T15:25:27.124Z,40.50
2023-03-29T15:29:27.006Z,40.46
2023-03-29T15:33:27.186Z,40.51
2023-03-29T15:37:27.094Z,40.50
2023-03-29T15:41:27.304Z,40.52
2023-03-29T15:45:27.314Z,40.51
2023-03-29T15:49:27.500Z,40.64
2023-03-29T15:53:27.563Z,40.59
2023-03-29T15:57:27.842Z,40.62
2023-03-29T16:01:27.848Z,40.59
2023-03-29T16:05:27.935Z,40.62
2023-03-29T16:09:28.068Z,40.61
2023-03-29T16:13:28.213Z,40.63
2023-03-29T16:17:28.364Z,40.65
2023-03-29T16:21:28.457Z,40.65
2023-03-29T16:25:28.585Z,40.68
2023-03-29T16:29:28.712Z,40.67
2023-03-29T16:33:28.843Z,40.68
2023-03-29T16:37:28.961Z,40.72
2023-03-29T16:41:29.077Z,40.73
2023-03-29T16:45:29.645Z,40.75
2023-03-29T16:49:29.327Z,40.73
2023-03-29T16:53:29.441Z,40.77
2023-03-29T16:57:29.676Z,40.79
2023-03-29T17:01:29.756Z,40.86
2023-03-29T17:05:29.858Z,40.89
2023-03-29T17:09:30.073Z,40.79
2023-03-29T17:13:30.076Z,40.77
2023-03-29T17:17:30.173Z,40.75
2023-03-29T17:21:30.271Z,40.69
2023-03-29T17:25:30.381Z,40.67
2023-03-29T17:29:30.504Z,40.66
2023-03-29T17:33:30.656Z,40.59
2023-03-29T17:37:30.737Z,40.64
2023-03-29T17:41:31.127Z,40.60
2023-03-29T17:45:30.968Z,40.60
2023-03-29T17:49:31.077Z,40.59
2023-03-29T17:53:31.210Z,40.54
2023-03-29T17:57:31.329Z,40.56
2023-03-29T18:01:31.451Z,40.54
2023-03-29T18:05:31.577Z,40.51
2023-03-29T18:09:31.681Z,40.50
2023-03-29T18:13:31.780Z,40.43
2023-03-29T18:17:31.956Z,40.44
2023-03-29T18:21:32.049Z,40.39
2023-03-29T18:25:32.165Z,40.39
2023-03-29T18:29:32.274Z,40.38
2023-03-29T18:33:32.409Z,40.34
2023-03-29T18:37:32.495Z,40.35
2023-03-29T18:41:32.666Z,40.29
2023-03-29T18:45:32.804Z,40.29
2023-03-29T18:49:32.930Z,40.27
2023-03-29T18:53:33.052Z,40.23
2023-03-29T18:57:33.215Z,40.20
2023-03-29T19:01:33.348Z,40.20
2023-03-29T19:05:33.447Z,40.17
2023-03-29T19:09:33.588Z,40.15
2023-03-29T19:13:33.719Z,40.07
2023-03-29T19:17:33.893Z,40.04
2023-03-29T19:21:34.022Z,40.06
2023-03-29T19:25:34.532Z,40.00
2023-03-29T19:29:34.341Z,39.94
2023-03-29T19:33:34.434Z,39.95
2023-03-29T19:37:34.654Z,39.91
2023-03-29T19:41:34.765Z,39.92
2023-03-29T19:45:34.887Z,39.89
2023-03-29T19:49:35.021Z,39.90
2023-03-29T19:53:38.399Z,39.87
2023-03-29T19:57:35.196Z,39.80
2023-03-29T20:01:35.141Z,39.78
2023-03-29T20:05:35.090Z,39.78
2023-03-29T20:09:35.522Z,39.75
2023-03-29T20:17:34.983Z,39.71
2023-03-29T20:21:35.153Z,39.69
2023-03-29T20:25:35.255Z,39.63
2023-03-29T20:29:35.422Z,39.68
2023-03-29T20:33:35.566Z,39.59
2023-03-29T20:37:35.723Z,39.58
2023-03-29T20:41:35.857Z,39.58
2023-03-29T20:45:46.369Z,39.59
2023-03-29T20:49:37.214Z,39.56
2023-03-29T20:53:35.959Z,39.55
2023-03-29T20:57:35.961Z,39.53
2023-03-29T21:01:36.107Z,39.51
2023-03-29T21:05:36.207Z,39.47
2023-03-29T21:09:36.376Z,39.50
2023-03-29T21:13:37.325Z,39.43
2023-03-29T21:17:36.644Z,39.43
2023-03-29T21:21:36.774Z,39.41
2023-03-29T21:25:36.899Z,39.40
2023-03-29T21:29:37.059Z,39.39
2023-03-29T21:33:37.187Z,39.33
2023-03-29T21:37:37.329Z,39.30
2023-03-29T21:41:37.507Z,39.27
2023-03-29T21:45:37.685Z,39.26
2023-03-29T21:49:37.788Z,39.23
2023-03-29T21:53:37.949Z,39.21
2023-03-29T21:57:38.119Z,39.18
2023-03-29T22:01:38.258Z,39.15
2023-03-29T22:05:38.409Z,39.13
2023-03-29T22:09:38.560Z,39.09
2023-03-29T22:13:38.709Z,39.05
2023-03-29T22:17:38.889Z,39.04
2023-03-29T22:21:38.956Z,39.02
2023-03-29T22:25:39.081Z,38.99
2023-03-29T22:29:39.218Z,38.97
2023-03-29T22:33:39.363Z,38.96
2023-03-29T22:37:39.497Z,38.94
2023-03-29T22:41:39.647Z,38.86
2023-03-29T22:45:39.779Z,38.90
2023-03-29T22:49:39.938Z,38.84
2023-03-29T22:53:40.062Z,38.82
2023-03-29T22:57:40.194Z,38.80
2023-03-29T23:01:40.357Z,38.79
2023-03-29T23:05:40.469Z,38.74
2023-03-29T23:09:40.610Z,38.74
2023-03-29T23:13:40.752Z,38.74
2023-03-29T23:17:40.941Z,38.72
2023-03-29T23:21:41.061Z,38.69
2023-03-29T23:25:41.166Z,38.66
2023-03-29T23:29:41.307Z,38.65
2023-03-29T23:33:41.439Z,38.62
2023-03-29T23:37:41.567Z,38.60
2023-03-29T23:41:41.753Z,38.57
2023-03-29T23:45:41.869Z,38.55
2023-03-29T23:49:42.050Z,38.52
2023-03-29T23:53:42.213Z,38.50
2023-03-29T23:57:42.275Z,38.50
